Time;durP1;ratioP1;P1;durP2;ratioP2;P2;SDS_P1;SDS_P2;PMS_P1;PMS_P2;Temp;Humidity;BMP_temperature;BMP_pressure;BME280_temperature;BME280_humidity;BME280_pressure;Samples;Min_cycle;Max_cycle;Signal;HPM_P1;HPM_P2
2021/09/09 00:02:15;;;;;;;;;;;;;;;27.93;38.91;101127.16;5105582;28;20431;-83
2021/09/09 00:04:40;;;;;;;;;;;;;;;28.18;38.10;101124.31;5087514;28;19916;-87
2021/09/09 00:07:05;;;;;;;;;;;;;;;28.22;38.08;101122.91;5106241;28;19916;-88
2021/09/09 00:09:30;;;;;;;;;;;;;;;28.43;37.55;101122.25;5088279;28;20010;-86
2021/09/09 00:11:57;;;;;;;;;;;;;;;28.17;38.26;101120.63;5106859;28;19920;-87
2021/09/09 00:14:22;;;;;;;;;;;;;;;28.10;38.51;101123.28;5088211;28;19965;-85
2021/09/09 00:16:47;;;;;;;;;;;;;;;28.51;37.72;101129.69;5106851;28;19920;-81
2021/09/09 00:19:12;;;;;;;;;;;;;;;28.60;37.50;101126.66;5087602;28;20345;-87
2021/09/09 00:21:38;;;;;;;;;;;;;;;28.39;37.64;101129.22;5086923;28;19916;-89
2021/09/09 00:24:04;;;;;;;;;;;;;;;28.35;37.74;101123.13;5086836;28;19917;-84
2021/09/09 00:26:30;;;;;;;;;;;;;;;28.56;37.31;101124.41;5086663;28;19924;-89
2021/09/09 00:28:55;;;;;;;;;;;;;;;28.40;37.50;101112.34;5104614;28;19923;-86
2021/09/09 00:31:20;;;;;;;;;;;;;;;28.41;37.77;101113.19;5086379;28;19952;-81
2021/09/09 00:33:46;;;;;;;;;;;;;;;28.35;37.72;101105.59;5104248;28;19920;-87
2021/09/09 00:36:11;;;;;;;;;;;;;;;28.23;37.71;101108.81;5086688;28;19923;-85
2021/09/09 00:38:36;;;;;;;;;;;;;;;28.41;37.44;101102.94;5084571;28;19969;-87
2021/09/09 00:41:04;;;;;;;;;;;;;;;28.26;37.63;101108.44;5084749;28;20007;-90
2021/09/09 00:43:29;;;;;;;;;;;;;;;28.08;37.91;101107.81;5084891;28;19912;-86
2021/09/09 00:45:55;;;;;;;;;;;;;;;27.99;38.16;101101.47;5102868;28;19955;-89
2021/09/09 00:48:21;;;;;;;;;;;;;;;28.19;37.79;101098.22;5102846;28;20014;-84
2021/09/09 00:50:49;;;;;;;;;;;;;;;28.29;37.54;101098.84;5105873;28;19916;-87
2021/09/09 00:53:15;;;;;;;;;;;;;;;28.02;38.54;101094.66;5089214;28;19998;-89
2021/09/09 00:55:40;;;;;;;;;;;;;;;27.92;38.46;101090.16;5089405;28;20376;-86
2021/09/09 00:58:10;;;;;;;;;;;;;;;27.67;39.02;101097.72;5089338;28;19924;-88
2021/09/09 01:00:35;;;;;;;;;;;;;;;27.70;39.05;101090.94;5089132;28;20269;-87
2021/09/09 01:03:01;;;;;;;;;;;;;;;28.13;37.91;101079.47;5088228;28;19922;-84
2021/09/09 01:05:27;;;;;;;;;;;;;;;28.25;37.59;101078.88;5072343;28;20395;-85
2021/09/09 01:07:53;;;;;;;;;;;;;;;28.06;38.09;101079.34;5087521;28;19924;-82
2021/09/09 01:10:19;;;;;;;;;;;;;;;27.74;38.57;101078.44;5088326;28;19916;-82
2021/09/09 01:12:44;;;;;;;;;;;;;;;27.88;38.40;101072.09;5106346;28;19969;-86
2021/09/09 01:15:09;;;;;;;;;;;;;;;27.59;38.83;101070.81;5088640;28;19924;-86
2021/09/09 01:17:35;;;;;;;;;;;;;;;27.89;38.37;101068.28;5106354;28;19916;-86
2021/09/09 01:20:00;;;;;;;;;;;;;;;28.16;37.58;101067.97;5088766;28;19924;-87
2021/09/09 01:22:25;;;;;;;;;;;;;;;28.01;38.08;101067.91;5106421;28;19987;-85
2021/09/09 01:24:50;;;;;;;;;;;;;;;28.16;37.51;101066.06;5087761;28;19916;-82
2021/09/09 01:27:16;;;;;;;;;;;;;;;27.24;39.04;101061.88;5106622;28;20327;-85
2021/09/09 01:29:42;;;;;;;;;;;;;;;27.57;38.37;101052.63;5106728;28;19947;-86
2021/09/09 01:32:08;;;;;;;;;;;;;;;27.51;38.46;101056.13;5088223;28;19939;-87
2021/09/09 01:34:33;;;;;;;;;;;;;;;27.52;38.45;101058.72;5088990;28;19927;-86
2021/09/09 01:36:59;;;;;;;;;;;;;;;27.66;37.99;101056.22;5088160;28;19920;-81
2021/09/09 01:39:25;;;;;;;;;;;;;;;27.68;38.15;101055.00;5105342;28;19962;-82
2021/09/09 01:41:51;;;;;;;;;;;;;;;27.68;37.84;101060.53;5105036;28;20026;-88
2021/09/09 01:44:17;;;;;;;;;;;;;;;27.68;37.92;101059.69;5105865;28;19949;-88
2021/09/09 01:46:42;;;;;;;;;;;;;;;27.50;38.19;101058.00;5088097;28;20281;-90
2021/09/09 01:49:08;;;;;;;;;;;;;;;27.43;38.17;101061.69;5087682;28;19912;-85
2021/09/09 01:51:33;;;;;;;;;;;;;;;27.51;37.98;101064.47;5088316;28;19924;-87
2021/09/09 01:53:58;;;;;;;;;;;;;;;27.65;37.79;101065.63;5087598;28;19926;-86
2021/09/09 01:56:23;;;;;;;;;;;;;;;27.57;38.09;101061.81;5087662;28;19938;-82
2021/09/09 01:58:50;;;;;;;;;;;;;;;27.57;37.99;101061.81;5088170;28;19951;-85
2021/09/09 02:01:16;;;;;;;;;;;;;;;27.51;38.28;101058.91;5086203;28;20081;-88
2021/09/09 02:03:41;;;;;;;;;;;;;;;27.57;37.97;101053.47;5086800;28;19986;-86
2021/09/09 02:06:06;;;;;;;;;;;;;;;27.57;37.65;101059.03;5086245;28;19969;-88
2021/09/09 02:08:32;;;;;;;;;;;;;;;27.40;38.21;101055.47;5104262;28;19962;-86
2021/09/09 02:10:58;;;;;;;;;;;;;;;27.40;38.43;101060.13;5103800;28;19923;-85
2021/09/09 02:13:23;;;;;;;;;;;;;;;27.48;37.99;101057.34;5085290;28;19926;-84
2021/09/09 02:15:51;;;;;;;;;;;;;;;27.49;38.00;101060.97;5085242;28;19923;-86
2021/09/09 02:18:24;;;;;;;;;;;;;;;27.21;38.59;101051.13;5103786;28;19916;-86
2021/09/09 02:20:49;;;;;;;;;;;;;;;26.82;39.89;101054.66;5103648;28;20020;-87
2021/09/09 02:23:14;;;;;;;;;;;;;;;26.94;39.38;101062.66;5085844;28;20308;-86
2021/09/09 02:25:39;;;;;;;;;;;;;;;27.05;39.23;101052.06;5085641;28;19916;-85
2021/09/09 02:28:05;;;;;;;;;;;;;;;26.94;39.66;101060.72;5086042;28;20029;-83
2021/09/09 02:30:31;;;;;;;;;;;;;;;26.83;40.00;101059.19;5103777;28;19948;-83
2021/09/09 02:32:56;;;;;;;;;;;;;;;27.07;39.37;101060.19;5084897;28;19916;-88
2021/09/09 02:35:21;;;;;;;;;;;;;;;27.11;39.35;101069.03;5086498;28;19923;-85
2021/09/09 02:37:46;;;;;;;;;;;;;;;26.53;40.81;101066.28;5069183;28;19956;-86
2021/09/09 02:40:12;;;;;;;;;;;;;;;26.83;39.82;101058.31;5086057;28;19923;-90
2021/09/09 02:42:38;;;;;;;;;;;;;;;27.18;39.37;101054.25;5103409;28;19954;-89
2021/09/09 02:45:03;;;;;;;;;;;;;;;27.01;39.41;101059.00;5103257;28;19916;-88
2021/09/09 02:47:28;;;;;;;;;;;;;;;26.17;41.59;101056.34;5085309;28;19978;-88
2021/09/09 02:49:54;;;;;;;;;;;;;;;26.41;41.17;101056.56;5084723;28;20015;-88
2021/09/09 02:52:19;;;;;;;;;;;;;;;26.71;40.34;101046.72;5103847;28;20012;-85
2021/09/09 02:54:44;;;;;;;;;;;;;;;26.55;40.58;101039.19;5103910;28;19977;-90
2021/09/09 02:57:09;;;;;;;;;;;;;;;26.72;40.45;101040.09;5103611;28;19917;-88
2021/09/09 02:59:34;;;;;;;;;;;;;;;26.38;41.14;101035.56;5084728;28;19916;-83
2021/09/09 03:02:00;;;;;;;;;;;;;;;26.12;41.78;101035.72;5103467;28;19920;-86
2021/09/09 03:04:25;;;;;;;;;;;;;;;26.12;41.85;101030.19;5085326;28;19916;-84
2021/09/09 03:06:51;;;;;;;;;;;;;;;26.73;40.33;101030.72;5086028;28;19916;-83
2021/09/09 03:09:17;;;;;;;;;;;;;;;26.21;41.41;101033.81;5085009;28;19992;-88
2021/09/09 03:11:42;;;;;;;;;;;;;;;25.86;42.26;101030.22;5085514;28;19916;-88
2021/09/09 03:14:07;;;;;;;;;;;;;;;26.11;41.73;101022.88;5084755;28;19920;-86
2021/09/09 03:16:32;;;;;;;;;;;;;;;26.05;41.83;101018.88;5084579;28;19934;-88
2021/09/09 03:18:57;;;;;;;;;;;;;;;26.14;41.39;101019.78;5102919;28;20345;-84
2021/09/09 03:21:23;;;;;;;;;;;;;;;26.36;40.93;101009.91;5084454;28;19916;-85
2021/09/09 03:23:48;;;;;;;;;;;;;;;26.45;40.72;101011.66;5085255;28;19920;-87
2021/09/09 03:26:13;;;;;;;;;;;;;;;25.89;41.67;101007.72;5084993;28;19916;-88
2021/09/09 03:28:39;;;;;;;;;;;;;;;25.95;41.60;101015.34;5103638;28;20304;-89
2021/09/09 03:31:04;;;;;;;;;;;;;;;25.75;42.33;101007.34;5103129;28;19918;-85
2021/09/09 03:33:29;;;;;;;;;;;;;;;26.00;41.25;101013.00;5084514;28;19987;-86
2021/09/09 03:35:54;;;;;;;;;;;;;;;25.59;42.37;101016.47;5084876;28;20386;-87
2021/09/09 03:38:20;;;;;;;;;;;;;;;25.57;42.38;101018.53;5084619;28;19920;-84
2021/09/09 03:40:45;;;;;;;;;;;;;;;26.11;41.45;101018.19;5084544;28;19916;-86
2021/09/09 03:43:10;;;;;;;;;;;;;;;25.62;42.32;101034.66;5084942;28;19920;-87
2021/09/09 03:45:35;;;;;;;;;;;;;;;25.80;42.13;101029.00;5084862;28;20405;-87
2021/09/09 03:48:01;;;;;;;;;;;;;;;26.11;41.52;101031.19;5084325;28;19916;-87
2021/09/09 03:50:27;;;;;;;;;;;;;;;26.52;40.33;101032.09;5084143;28;19961;-86
2021/09/09 03:52:52;;;;;;;;;;;;;;;26.05;41.44;101032.75;5098569;28;19917;-88
2021/09/09 03:55:17;;;;;;;;;;;;;;;26.14;41.08;101022.53;5082637;28;19916;-88
2021/09/09 03:57:43;;;;;;;;;;;;;;;26.09;41.27;101024.94;5083366;28;19916;-91
2021/09/09 04:00:08;;;;;;;;;;;;;;;26.40;40.41;101015.97;5103001;28;19926;-89
2021/09/09 04:02:34;;;;;;;;;;;;;;;26.68;39.95;101020.16;5085329;28;19916;-86
2021/09/09 04:05:00;;;;;;;;;;;;;;;26.38;40.86;101013.38;5085802;28;19920;-90
2021/09/09 04:07:25;;;;;;;;;;;;;;;26.23;40.90;101017.88;5084070;28;19913;-86
2021/09/09 04:09:51;;;;;;;;;;;;;;;25.80;41.76;101009.59;5083870;28;19916;-85
2021/09/09 04:12:16;;;;;;;;;;;;;;;25.93;41.78;101014.66;5083658;28;19963;-84
2021/09/09 04:14:41;;;;;;;;;;;;;;;25.89;41.71;101016.03;5083871;28;19969;-86
2021/09/09 04:17:06;;;;;;;;;;;;;;;25.00;43.79;101018.22;5083770;28;19922;-85
2021/09/09 04:19:32;;;;;;;;;;;;;;;24.93;43.86;101021.63;5083448;28;19912;-87
2021/09/09 04:21:57;;;;;;;;;;;;;;;25.17;43.15;101019.16;5101243;28;19955;-86
2021/09/09 04:24:22;;;;;;;;;;;;;;;25.48;42.83;101008.47;5087089;28;19947;-85
2021/09/09 04:26:48;;;;;;;;;;;;;;;25.77;42.25;101004.41;5090439;28;19920;-85
2021/09/09 04:29:13;;;;;;;;;;;;;;;25.51;42.64;100997.03;5089753;28;20003;-86
2021/09/09 04:31:38;;;;;;;;;;;;;;;24.38;45.50;101006.16;5090126;28;19924;-87
2021/09/09 04:34:04;;;;;;;;;;;;;;;24.44;44.88;100996.34;5091090;28;19923;-84
2021/09/09 04:36:29;;;;;;;;;;;;;;;24.88;43.79;100992.72;5091362;28;19920;-87
2021/09/09 04:38:54;;;;;;;;;;;;;;;24.51;45.13;100991.03;5088709;28;19994;-88
2021/09/09 04:41:19;;;;;;;;;;;;;;;24.09;46.30;100983.44;5089008;28;19916;-85
2021/09/09 04:43:45;;;;;;;;;;;;;;;24.39;45.30;100987.66;5107645;28;19924;-82
2021/09/09 04:46:10;;;;;;;;;;;;;;;24.34;45.58;100979.00;5090089;28;19979;-86
2021/09/09 04:48:35;;;;;;;;;;;;;;;24.98;43.59;100979.63;5090281;28;20349;-85
2021/09/09 04:51:01;;;;;;;;;;;;;;;25.45;42.44;100973.66;5090076;28;20007;-85
2021/09/09 04:53:26;;;;;;;;;;;;;;;25.64;41.76;100966.97;5106335;28;19916;-86
2021/09/09 04:55:51;;;;;;;;;;;;;;;26.07;40.60;100968.81;5088624;28;19959;-85
2021/09/09 04:58:17;;;;;;;;;;;;;;;25.92;41.05;100968.56;5088659;28;20285;-88
2021/09/09 05:00:42;;;;;;;;;;;;;;;26.03;41.03;100968.28;5087756;28;19971;-84
2021/09/09 05:03:07;;;;;;;;;;;;;;;25.71;41.78;100963.50;5086709;28;19916;-86
2021/09/09 05:05:36;;;;;;;;;;;;;;;25.45;42.43;100964.47;5087080;28;20212;-85
2021/09/09 05:08:04;;;;;;;;;;;;;;;25.46;42.37;100971.75;5106289;28;19916;-86
2021/09/09 05:10:30;;;;;;;;;;;;;;;25.49;42.33;100962.25;5089134;28;19920;-86
2021/09/09 05:12:55;;;;;;;;;;;;;;;26.13;41.09;100960.69;5089740;28;19926;-83
2021/09/09 05:15:20;;;;;;;;;;;;;;;25.29;42.82;100968.03;5089683;28;19981;-85
2021/09/09 05:17:45;;;;;;;;;;;;;;;25.42;42.59;100964.81;5089400;28;19923;-83
2021/09/09 05:20:12;;;;;;;;;;;;;;;25.11;42.96;100968.13;5108352;28;19916;-85
2021/09/09 05:22:37;;;;;;;;;;;;;;;25.70;41.67;100954.34;5100847;28;20062;-83
2021/09/09 05:25:03;;;;;;;;;;;;;;;25.83;41.46;100959.38;5101061;28;19966;-84
2021/09/09 05:27:29;;;;;;;;;;;;;;;25.64;41.58;100961.41;5100256;28;19916;-86
2021/09/09 05:29:54;;;;;;;;;;;;;;;25.41;42.15;100965.84;5083855;28;19916;-85
2021/09/09 05:32:19;;;;;;;;;;;;;;;25.46;41.98;100964.31;5084567;28;19970;-85
2021/09/09 05:34:44;;;;;;;;;;;;;;;25.46;41.93;100964.31;5081884;28;19965;-81
2021/09/09 05:37:10;;;;;;;;;;;;;;;25.91;40.98;100967.72;5099511;28;19922;-83
2021/09/09 05:39:35;;;;;;;;;;;;;;;25.34;42.16;100960.09;5098639;28;19923;-84
2021/09/09 05:42:00;;;;;;;;;;;;;;;25.23;42.88;100968.69;5081900;28;19945;-84
2021/09/09 05:44:25;;;;;;;;;;;;;;;25.58;42.13;100961.25;5099533;28;19920;-83
2021/09/09 05:46:51;;;;;;;;;;;;;;;25.73;41.63;100959.53;5080919;28;19916;-86
2021/09/09 05:49:16;;;;;;;;;;;;;;;25.93;40.99;100953.69;5081138;28;19916;-83
2021/09/09 05:51:41;;;;;;;;;;;;;;;24.72;43.92;100960.28;5081463;28;19923;-86
2021/09/09 05:54:06;;;;;;;;;;;;;;;24.84;43.82;100958.13;5100239;28;19924;-83
2021/09/09 05:56:32;;;;;;;;;;;;;;;26.12;41.10;100958.94;5102956;28;19959;-86
2021/09/09 05:58:57;;;;;;;;;;;;;;;25.15;43.03;100952.03;5102901;28;19917;-88
2021/09/09 06:01:24;;;;;;;;;;;;;;;24.40;44.88;100959.00;5103064;28;19920;-86
2021/09/09 06:03:50;;;;;;;;;;;;;;;24.18;45.95;100963.13;5103086;28;20063;-86
2021/09/09 06:06:16;;;;;;;;;;;;;;;25.06;43.42;100964.97;5083530;28;20010;-86
2021/09/09 06:08:42;;;;;;;;;;;;;;;24.59;44.72;100966.22;5081847;28;19943;-85
2021/09/09 06:11:09;;;;;;;;;;;;;;;25.38;42.88;100960.63;5086956;28;20008;-84
2021/09/09 06:13:34;;;;;;;;;;;;;;;24.72;44.09;100963.06;5084546;28;19922;-80
2021/09/09 06:15:59;;;;;;;;;;;;;;;24.89;43.75;100955.72;5084523;28;19964;-86
2021/09/09 06:18:25;;;;;;;;;;;;;;;24.48;44.26;100960.94;5084596;28;19917;-89
2021/09/09 06:20:50;;;;;;;;;;;;;;;24.88;43.64;100960.38;5081694;28;19916;-85
2021/09/09 06:23:15;;;;;;;;;;;;;;;25.36;43.15;100959.94;5081104;28;19923;-86
2021/09/09 06:25:40;;;;;;;;;;;;;;;25.92;41.55;100958.38;5079413;28;19916;-86
2021/09/09 06:28:05;;;;;;;;;;;;;;;26.29;40.63;100959.81;5080414;28;20010;-86
2021/09/09 06:30:31;;;;;;;;;;;;;;;26.34;40.76;100956.50;5080412;28;20376;-84
2021/09/09 06:32:56;;;;;;;;;;;;;;;26.20;41.08;100966.38;5081201;28;20366;-85
2021/09/09 06:35:21;;;;;;;;;;;;;;;25.46;42.34;100963.44;5080744;28;19923;-86
2021/09/09 06:37:47;;;;;;;;;;;;;;;25.01;43.62;100961.84;5079067;28;19916;-85
2021/09/09 06:40:13;;;;;;;;;;;;;;;26.02;41.63;100949.91;5098176;28;19924;-83
2021/09/09 06:42:39;;;;;;;;;;;;;;;25.61;42.11;100950.69;5078898;28;19930;-83
2021/09/09 06:45:05;;;;;;;;;;;;;;;25.91;41.65;100956.63;5080578;28;19931;-86
2021/09/09 06:47:30;;;;;;;;;;;;;;;25.19;43.32;100964.53;5097774;28;19916;-85
2021/09/09 06:49:55;;;;;;;;;;;;;;;25.10;43.71;100978.31;5079978;28;19916;-85
2021/09/09 06:52:20;;;;;;;;;;;;;;;25.37;43.01;100978.31;5097816;28;20361;-87
2021/09/09 06:54:46;;;;;;;;;;;;;;;25.29;43.38;100985.53;5098598;28;20007;-86
2021/09/09 06:57:11;;;;;;;;;;;;;;;25.38;43.43;101003.06;5080498;28;19954;-85
2021/09/09 06:59:36;;;;;;;;;;;;;;;24.60;45.24;101023.31;5097882;28;19916;-85
2021/09/09 07:02:01;;;;;;;;;;;;;;;25.11;45.08;101007.72;5098543;28;19923;-86
2021/09/09 07:04:26;;;;;;;;;;;;;;;26.14;42.41;100992.91;5098096;28;20007;-86
2021/09/09 07:06:52;;;;;;;;;;;;;;;25.46;43.44;101008.63;5080868;28;19961;-88
2021/09/09 07:09:17;;;;;;;;;;;;;;;25.12;44.02;101005.81;5081437;28;19919;-88
2021/09/09 07:11:42;;;;;;;;;;;;;;;26.39;41.64;100992.03;5082308;28;20022;-89
2021/09/09 07:14:08;;;;;;;;;;;;;;;25.20;44.04;100996.69;5081798;28;19924;-87
2021/09/09 07:16:33;;;;;;;;;;;;;;;26.34;41.34;100987.91;5081109;28;19959;-86
2021/09/09 07:18:58;;;;;;;;;;;;;;;26.91;40.11;100985.25;5082061;28;20122;-84
2021/09/09 07:21:23;;;;;;;;;;;;;;;26.58;40.85;100994.47;5081226;28;19923;-87
2021/09/09 07:23:49;;;;;;;;;;;;;;;26.73;40.74;100975.22;5080538;28;19988;-83
2021/09/09 07:26:14;;;;;;;;;;;;;;;27.02;39.86;100971.00;5080736;28;19922;-83
2021/09/09 07:28:39;;;;;;;;;;;;;;;27.76;38.94;100966.00;5080085;28;19920;-78
2021/09/09 07:31:05;;;;;;;;;;;;;;;27.20;39.10;100966.06;5097011;28;19965;-79
2021/09/09 07:33:30;;;;;;;;;;;;;;;27.98;38.12;100960.69;5091989;28;19924;-79
2021/09/09 07:35:55;;;;;;;;;;;;;;;28.27;37.18;100964.63;5085720;28;19928;-79
2021/09/09 07:38:20;;;;;;;;;;;;;;;27.43;39.19;100965.28;5057077;28;20389;-79
2021/09/09 07:40:46;;;;;;;;;;;;;;;28.49;37.24;100976.78;5057836;28;20484;-80
2021/09/09 07:43:11;;;;;;;;;;;;;;;28.14;38.24;100981.91;5076250;28;19931;-81
2021/09/09 07:45:38;;;;;;;;;;;;;;;27.92;38.19;100970.56;5057066;28;19925;-80
2021/09/09 07:48:03;;;;;;;;;;;;;;;28.16;38.27;100963.16;5057458;28;19960;-80
2021/09/09 07:50:29;;;;;;;;;;;;;;;29.22;36.42;100959.53;5057913;28;19928;-79
2021/09/09 07:52:54;;;;;;;;;;;;;;;29.10;36.05;100965.53;5075701;28;20342;-80
2021/09/09 07:55:19;;;;;;;;;;;;;;;28.12;38.34;100972.91;5074376;28;19920;-80
2021/09/09 07:57:45;;;;;;;;;;;;;;;29.01;36.43;100986.19;5057783;28;19968;-79
2021/09/09 08:00:10;;;;;;;;;;;;;;;28.45;37.19;100983.78;5057015;28;20329;-79
2021/09/09 08:02:36;;;;;;;;;;;;;;;28.36;37.60;100985.75;5074028;28;19920;-81
2021/09/09 08:05:01;;;;;;;;;;;;;;;28.26;37.87;100977.69;5057094;28;19916;-78
2021/09/09 08:07:27;;;;;;;;;;;;;;;29.84;34.95;100992.50;5076008;28;20009;-79
2021/09/09 08:09:53;;;;;;;;;;;;;;;28.73;36.87;100997.09;5074820;28;19917;-86
2021/09/09 08:12:19;;;;;;;;;;;;;;;28.89;36.67;100991.38;5043076;28;20011;-85
2021/09/09 08:14:45;;;;;;;;;;;;;;;29.07;36.71;100993.78;5077781;28;19999;-85
2021/09/09 08:17:10;;;;;;;;;;;;;;;28.81;36.81;100985.91;5059239;28;19947;-82
2021/09/09 08:19:35;;;;;;;;;;;;;;;29.89;35.10;100997.50;5060656;28;20346;-86
2021/09/09 08:22:01;;;;;;;;;;;;;;;29.25;35.95;100999.00;5058935;28;20259;-84
2021/09/09 08:24:26;;;;;;;;;;;;;;;29.62;35.68;101005.53;5078392;28;19916;-87
2021/09/09 08:26:51;;;;;;;;;;;;;;;29.97;35.36;101007.66;5060753;28;19916;-86
2021/09/09 08:29:18;;;;;;;;;;;;;;;29.54;35.98;101002.81;5078822;28;20003;-86
2021/09/09 08:31:45;;;;;;;;;;;;;;;29.78;35.85;101017.50;5060412;28;19923;-86
2021/09/09 08:34:10;;;;;;;;;;;;;;;30.46;34.62;101004.13;5058095;28;19981;-84
2021/09/09 08:36:35;;;;;;;;;;;;;;;29.55;36.30;101018.50;5059834;28;19916;-86
2021/09/09 08:39:00;;;;;;;;;;;;;;;29.95;35.49;101005.06;5059465;28;19916;-82
2021/09/09 08:41:26;;;;;;;;;;;;;;;30.48;34.38;100995.53;5059630;28;19917;-85
2021/09/09 08:43:51;;;;;;;;;;;;;;;31.23;33.49;100993.13;5078014;28;19932;-86
2021/09/09 08:46:17;;;;;;;;;;;;;;;31.05;33.11;100986.13;5060983;28;19962;-88
2021/09/09 08:48:44;;;;;;;;;;;;;;;30.49;34.41;100992.53;5059628;28;19978;-86
2021/09/09 08:51:09;;;;;;;;;;;;;;;31.02;33.45;100980.94;5078896;28;19916;-87
2021/09/09 08:53:34;;;;;;;;;;;;;;;31.42;32.81;100997.09;5061077;28;20004;-86
2021/09/09 08:56:00;;;;;;;;;;;;;;;31.37;32.87;100989.31;5077327;28;19920;-81
2021/09/09 08:58:25;;;;;;;;;;;;;;;31.40;33.16;100983.34;5061691;28;19932;-86
2021/09/09 09:01:02;;;;;;;;;;;;;;;31.53;32.92;100988.09;5064304;28;19921;-85
2021/09/09 09:03:41;;;;;;;;;;;;;;;30.75;34.34;100996.63;5065943;28;19943;-87
2021/09/09 09:06:26;;;;;;;;;;;;;;;31.19;33.43;101009.44;5073236;28;19942;-85
2021/09/09 09:08:54;;;;;;;;;;;;;;;30.78;34.65;101006.53;5092855;28;19908;-85
2021/09/09 09:11:30;;;;;;;;;;;;;;;30.44;35.21;101005.38;5069955;28;19920;-84
2021/09/09 09:13:56;;;;;;;;;;;;;;;31.30;33.63;101004.31;5064495;28;19932;-80
2021/09/09 09:16:22;;;;;;;;;;;;;;;32.00;32.52;101001.44;5080904;28;20366;-83
2021/09/09 09:18:47;;;;;;;;;;;;;;;31.82;32.83;100993.63;5082436;28;19916;-86
2021/09/09 09:21:13;;;;;;;;;;;;;;;32.06;32.59;101001.44;5081649;28;19923;-84
2021/09/09 09:23:49;;;;;;;;;;;;;;;32.73;31.64;101011.91;5082681;28;20011;-84
2021/09/09 09:26:16;;;;;;;;;;;;;;;32.22;32.37;101011.41;5063811;28;19923;-82
2021/09/09 09:28:42;;;;;;;;;;;;;;;31.72;33.49;101008.88;5062386;28;19904;-84
2021/09/09 09:31:07;;;;;;;;;;;;;;;31.66;33.04;101006.03;5063282;28;20058;-87
2021/09/09 09:33:34;;;;;;;;;;;;;;;32.47;32.77;101002.41;5062399;28;20395;-82
2021/09/09 09:36:12;;;;;;;;;;;;;;;33.24;31.13;101007.56;5063310;28;19982;-87
2021/09/09 09:38:40;;;;;;;;;;;;;;;31.53;33.80;101001.25;5063266;28;19923;-87
2021/09/09 09:41:05;;;;;;;;;;;;;;;31.69;33.90;101000.03;5081010;28;20014;-88
2021/09/09 09:43:30;;;;;;;;;;;;;;;31.44;34.46;101000.53;5062973;28;19978;-85
2021/09/09 09:45:58;;;;;;;;;;;;;;;32.75;32.32;101010.63;5046440;28;20301;-85
2021/09/09 09:48:29;;;;;;;;;;;;;;;31.62;34.48;101000.88;5063599;28;19924;-86
2021/09/09 09:50:54;;;;;;;;;;;;;;;32.40;33.43;101008.00;5063640;28;19967;-90
2021/09/09 09:53:21;;;;;;;;;;;;;;;34.23;31.07;100991.38;5082008;28;19920;-90
2021/09/09 09:55:46;;;;;;;;;;;;;;;32.76;33.05;101003.94;5063133;28;20015;-87
2021/09/09 09:58:12;;;;;;;;;;;;;;;33.41;31.77;101002.34;5080724;28;19955;-86
2021/09/09 10:00:37;;;;;;;;;;;;;;;34.04;31.23;101004.44;5063005;28;19920;-86
2021/09/09 10:03:02;;;;;;;;;;;;;;;33.38;32.18;100998.91;5061364;28;20275;-85
2021/09/09 10:05:28;;;;;;;;;;;;;;;32.91;32.48;101000.03;5062105;28;19917;-83
2021/09/09 10:07:54;;;;;;;;;;;;;;;33.24;32.40;100993.53;5080087;28;19916;-86
2021/09/09 10:10:19;;;;;;;;;;;;;;;33.75;31.72;100995.53;5062564;28;19985;-81
2021/09/09 10:12:47;;;;;;;;;;;;;;;32.99;33.11;100992.28;5078549;28;19924;-86
2021/09/09 10:15:13;;;;;;;;;;;;;;;32.56;33.89;100989.03;5062868;28;19916;-88
2021/09/09 10:17:39;;;;;;;;;;;;;;;34.33;30.78;100990.88;5080287;28;19959;-85
2021/09/09 10:20:22;;;;;;;;;;;;;;;32.92;33.33;100991.41;5081032;28;19950;-86
2021/09/09 10:23:06;;;;;;;;;;;;;;;31.84;35.73;100997.06;5079830;28;19943;-85
2021/09/09 10:25:44;;;;;;;;;;;;;;;33.61;32.86;101002.25;5063917;28;19920;-86
2021/09/09 10:28:27;;;;;;;;;;;;;;;33.10;34.15;100992.69;5082205;28;20488;-88
2021/09/09 10:31:07;;;;;;;;;;;;;;;32.67;34.27;100997.69;5063027;28;19920;-85
2021/09/09 10:33:32;;;;;;;;;;;;;;;32.92;34.47;101007.38;5063454;28;19917;-86
2021/09/09 10:35:58;;;;;;;;;;;;;;;33.42;33.62;101007.72;5082058;28;20070;-83
2021/09/09 10:38:26;;;;;;;;;;;;;;;34.26;32.81;100997.41;5080271;28;19916;-89
2021/09/09 10:40:51;;;;;;;;;;;;;;;33.18;34.37;101004.50;5078812;28;19980;-88
2021/09/09 10:43:22;;;;;;;;;;;;;;;35.09;31.03;100992.59;5062073;28;19925;-88
2021/09/09 10:45:48;;;;;;;;;;;;;;;33.44;33.42;100994.31;5063218;28;19920;-83
2021/09/09 10:48:20;;;;;;;;;;;;;;;33.95;33.00;101001.03;5062619;28;19917;-85
2021/09/09 10:51:04;;;;;;;;;;;;;;;34.23;33.28;101000.66;5079637;28;19923;-87
2021/09/09 10:53:40;;;;;;;;;;;;;;;34.20;33.10;100995.47;5062214;28;19923;-85
2021/09/09 10:56:08;;;;;;;;;;;;;;;33.85;33.80;101000.66;5080130;28;19916;-88
2021/09/09 10:58:33;;;;;;;;;;;;;;;33.16;35.41;100991.81;5080810;28;19938;-86
2021/09/09 11:01:02;;;;;;;;;;;;;;;33.83;33.97;100995.25;5079759;28;20381;-86
2021/09/09 11:03:36;;;;;;;;;;;;;;;34.07;33.70;100996.41;5078336;28;19916;-85
2021/09/09 11:06:03;;;;;;;;;;;;;;;34.51;33.16;100988.13;5061448;28;19920;-86
2021/09/09 11:08:29;;;;;;;;;;;;;;;35.40;31.74;100984.28;5078596;28;19988;-86
2021/09/09 11:10:54;;;;;;;;;;;;;;;34.86;32.60;100983.97;5078893;28;19959;-81
2021/09/09 11:13:23;;;;;;;;;;;;;;;33.67;34.02;100984.50;5077602;28;19927;-83
2021/09/09 11:15:49;;;;;;;;;;;;;;;33.26;35.38;100992.25;5060673;28;19925;-84
2021/09/09 11:18:22;;;;;;;;;;;;;;;33.52;34.71;100987.63;5061317;28;19921;-84
2021/09/09 11:20:47;;;;;;;;;;;;;;;33.51;34.84;100994.31;5078654;28;19917;-85
2021/09/09 11:23:13;;;;;;;;;;;;;;;33.43;35.08;100992.63;5062604;28;20030;-84
2021/09/09 11:25:38;;;;;;;;;;;;;;;33.81;34.61;100991.84;5060671;28;19921;-84
2021/09/09 11:28:13;;;;;;;;;;;;;;;35.02;32.11;100991.81;5078453;28;20405;-85
2021/09/09 11:30:40;;;;;;;;;;;;;;;33.36;34.28;101003.00;5059893;28;19924;-82
2021/09/09 11:33:06;;;;;;;;;;;;;;;33.39;34.88;101002.56;5043055;28;19948;-82
2021/09/09 11:35:31;;;;;;;;;;;;;;;34.06;33.63;100999.44;5078277;28;19970;-85
2021/09/09 11:37:56;;;;;;;;;;;;;;;35.48;31.96;100992.41;5078236;28;19917;-86
2021/09/09 11:40:23;;;;;;;;;;;;;;;35.25;31.59;100998.69;5060417;28;19921;-86
2021/09/09 11:42:48;;;;;;;;;;;;;;;33.55;34.93;101001.22;5077455;28;19920;-86
2021/09/09 11:45:13;;;;;;;;;;;;;;;33.74;34.42;101010.63;5078156;28;19917;-84
2021/09/09 11:47:41;;;;;;;;;;;;;;;34.36;33.94;101002.50;5096301;28;19923;-83
2021/09/09 11:50:10;;;;;;;;;;;;;;;33.79;34.80;101008.03;5080126;28;19951;-84
2021/09/09 11:52:36;;;;;;;;;;;;;;;34.13;34.72;101014.31;5098421;28;19940;-87
2021/09/09 11:55:14;;;;;;;;;;;;;;;34.47;34.12;101008.50;5082047;28;19920;-87
2021/09/09 11:57:46;;;;;;;;;;;;;;;34.83;32.94;101006.94;5100000;28;19920;-88
2021/09/09 12:00:14;;;;;;;;;;;;;;;34.86;32.69;101007.34;5079741;28;20289;-89
2021/09/09 12:02:41;;;;;;;;;;;;;;;34.93;33.43;101012.88;5097488;28;20007;-89
2021/09/09 12:05:10;;;;;;;;;;;;;;;33.09;36.45;101024.59;5097681;28;19924;-87
2021/09/09 12:07:36;;;;;;;;;;;;;;;33.98;34.72;101023.03;5079946;28;19916;-88
2021/09/09 12:10:02;;;;;;;;;;;;;;;32.73;36.12;101023.97;5079306;28;20369;-88
2021/09/09 12:12:30;;;;;;;;;;;;;;;33.08;35.85;101026.56;5079157;28;19936;-89
2021/09/09 12:14:57;;;;;;;;;;;;;;;33.59;35.08;101018.44;5080461;28;20004;-88
2021/09/09 12:17:22;;;;;;;;;;;;;;;32.79;36.24;101025.06;5081940;28;19916;-89
2021/09/09 12:19:51;;;;;;;;;;;;;;;33.98;34.42;101030.59;5081600;28;19927;-89
2021/09/09 12:22:17;;;;;;;;;;;;;;;34.01;34.41;101027.34;5081992;28;20029;-90
2021/09/09 12:24:42;;;;;;;;;;;;;;;33.36;35.02;101022.63;5080622;28;20389;-89
2021/09/09 12:27:07;;;;;;;;;;;;;;;34.59;33.12;101027.22;5080439;28;20281;-86
2021/09/09 12:29:37;;;;;;;;;;;;;;;33.37;35.11;101027.16;5081595;28;20006;-88
2021/09/09 12:32:25;;;;;;;;;;;;;;;32.92;35.42;101029.81;5082690;28;19916;-87